KHDE

Details ICAO KHDE
Name BREWSTER FLD
Region United States
Timezone America/Chicago (UTC-6.0)
Plans Departing 0
Arriving 2
Stats Elevation 2,313 ft / 705 m (AMSL)
Location 40.451052° -99.335154°
Runways 2
Magnetic Variation 4.921° E
Sunrise 2017-12-13 13:53:38 UTC / 2017-12-13 07:53:38 Local
Sunset 2017-12-13 23:12:33 UTC / 2017-12-13 17:12:33 Local
Advertisement - Login to hide

Runways

ID Width Length Bearing (true) Bearing (mag) Surface Threshold Offset Overrun Length
11 299 ft / 91 m 2,921 ft / 890 m 126.50° 121.58° Grass 0 ft / 0 m 0 ft / 0 m
18 49 ft / 15 m 4,702 ft / 1,433 m 9.60° 4.68° Asphalt 0 ft / 0 m 0 ft / 0 m
29 299 ft / 91 m 2,921 ft / 890 m 306.50° 301.58° Grass 0 ft / 0 m 0 ft / 0 m
36 49 ft / 15 m 4,702 ft / 1,433 m 189.60° 184.68° Asphalt 0 ft / 0 m 0 ft / 0 m

Map

Weather


0- 5 10 15 20 25 30 35+ Temperature / ° C

Clouds and Precipitation
Forecast for 2017-12-14 00:00 UTC. Updated an hour ago

Ground ~20,000 ft ~40,000 ft Winds

METAR

KHDE 132215Z AUTO 33011G20KT 10SM CLR 09/M04 A2992 RMK AO2 T00931037

TAF

Not found

Frequencies

Recorded 121.32 MHz AWOS 3
Unicom 122.80 MHz CTAF/UNICOM
Warning: Do not use this data for real-world aviation or navigation. No guarantee of current accuracy is given.